Terminal Aerodrome Forecast
Issued by NWS

Home | Current Version | Previous Version | Text Only | Print | Product List | Glossary On
Versions: 1 2 3 4 5 6 7 8 9 10 11 12 13 14 15 16 17
000
FTUS45 KSLC 250532
TAF36U
TAF
K36U 250532Z 2506/2606 VRB04KT P6SM SCT060 BKN120
     FM251400 VRB04KT P6SM VCSH SCT030 BKN060
     FM251800 23008KT P6SM -RA SCT020 BKN040
     FM260000 VRB04KT P6SM VCSH SCT040 BKN080
     FM260300 VRB04KT P6SM SCT080 SCT120=

USA.gov is the U.S. government's official web portal to all federal, state and local government web resources and services.